createdAt,value
2023-01-17T00:01:30.069Z,98143.72
2023-01-17T00:03:56.402Z,98146.25
2023-01-17T00:06:23.256Z,98141.28
2023-01-17T00:08:49.573Z,98150.25
2023-01-17T00:11:17.248Z,98145.88
2023-01-17T00:13:43.547Z,98151.91
2023-01-17T00:16:09.876Z,98155.41
2023-01-17T00:18:36.169Z,98163.13
2023-01-17T00:21:02.482Z,98156.94
2023-01-17T00:23:28.780Z,98174.31
2023-01-17T00:25:55.083Z,98157.19
2023-01-17T00:28:22.892Z,98161.31
2023-01-17T00:30:49.200Z,98166.38
2023-01-17T00:33:15.508Z,98168.78
2023-01-17T00:35:42.233Z,98181.41
2023-01-17T00:38:09.352Z,98184.94
2023-01-17T00:40:37.314Z,98188.19
2023-01-17T00:43:04.389Z,98188.88
2023-01-17T00:45:32.015Z,98199.44
2023-01-17T00:47:58.395Z,98203.03
2023-01-17T00:50:24.773Z,98210.00
2023-01-17T00:52:51.080Z,98212.75
2023-01-17T00:55:17.340Z,98234.72
2023-01-17T00:57:43.647Z,98223.47
2023-01-17T01:00:10.801Z,98229.38
2023-01-17T01:02:38.572Z,98236.50
2023-01-17T01:05:05.235Z,98255.56
2023-01-17T01:07:31.535Z,98237.94
2023-01-17T01:09:57.866Z,98251.03
2023-01-17T01:12:24.179Z,98261.94
2023-01-17T01:14:50.509Z,98263.31
2023-01-17T01:17:16.833Z,98277.66
2023-01-17T01:19:44.574Z,98279.91
2023-01-17T01:22:10.946Z,98290.97
2023-01-17T01:24:37.259Z,98285.47
2023-01-17T01:27:03.622Z,98293.34
2023-01-17T01:29:29.932Z,98292.72
2023-01-17T01:31:56.263Z,98298.72
2023-01-17T01:34:22.558Z,98306.63
2023-01-17T01:36:50.215Z,98306.94
2023-01-17T01:39:16.509Z,98313.59
2023-01-17T01:41:42.903Z,98317.69
2023-01-17T01:44:24.065Z,98321.84
2023-01-17T01:46:50.431Z,98321.22
2023-01-17T01:49:18.599Z,98327.28
2023-01-17T01:51:46.864Z,98336.31
2023-01-17T01:54:17.882Z,98342.53
2023-01-17T01:56:45.385Z,98339.22
2023-01-17T01:59:13.428Z,98342.00
2023-01-17T02:01:39.885Z,98345.16
2023-01-17T02:04:06.681Z,98345.81
2023-01-17T02:06:34.901Z,98344.69
2023-01-17T02:09:03.325Z,98355.66
2023-01-17T02:11:31.763Z,98357.47
2023-01-17T02:13:58.198Z,98346.50
2023-01-17T02:16:31.776Z,98364.72
2023-01-17T02:19:05.198Z,98364.53
2023-01-17T02:21:34.157Z,98362.75
2023-01-17T02:24:18.976Z,98359.50
2023-01-17T02:26:59.855Z,98363.59
2023-01-17T02:29:47.092Z,98371.28
2023-01-17T02:32:17.296Z,98377.84
2023-01-17T02:34:45.940Z,98380.78
2023-01-17T02:37:14.484Z,98370.00
2023-01-17T02:39:43.744Z,98370.16
2023-01-17T02:42:12.678Z,98379.63
2023-01-17T02:44:40.566Z,98376.19
2023-01-17T02:47:18.729Z,98381.25
2023-01-17T02:49:45.053Z,98387.16
2023-01-17T02:52:22.017Z,98391.72
2023-01-17T02:54:58.819Z,98393.69
2023-01-17T02:57:31.691Z,98397.47
2023-01-17T03:00:00.401Z,98396.34
2023-01-17T03:02:35.017Z,98409.44
2023-01-17T03:05:04.790Z,98410.88
2023-01-17T03:07:32.148Z,98418.91
2023-01-17T03:10:00.641Z,98422.38
2023-01-17T03:12:27.879Z,98427.09
2023-01-17T03:14:54.246Z,98426.94
2023-01-17T03:17:20.733Z,98422.34
2023-01-17T03:19:48.365Z,98419.88
2023-01-17T03:22:14.687Z,98420.53
2023-01-17T03:24:41.000Z,98419.41
2023-01-17T03:27:07.317Z,98416.13
2023-01-17T03:29:33.626Z,98418.59
2023-01-17T03:31:59.957Z,98413.66
2023-01-17T03:34:26.282Z,98420.53
2023-01-17T03:36:53.941Z,98423.16
2023-01-17T03:39:20.255Z,98425.44
2023-01-17T03:41:46.606Z,98426.06
2023-01-17T03:44:12.932Z,98423.63
2023-01-17T03:46:39.224Z,98430.66
2023-01-17T03:49:05.558Z,98431.31
2023-01-17T03:51:31.986Z,98428.38
2023-01-17T03:54:00.219Z,98433.25
2023-01-17T03:56:26.557Z,98429.31
2023-01-17T03:58:52.936Z,98437.13
2023-01-17T04:01:19.347Z,98434.66
2023-01-17T04:03:45.718Z,98439.09
2023-01-17T04:06:12.053Z,98438.94
2023-01-17T04:08:38.324Z,98438.47
2023-01-17T04:11:06.083Z,98447.28
2023-01-17T04:13:32.419Z,98440.25
2023-01-17T04:15:58.781Z,98445.50
2023-01-17T04:18:25.274Z,98441.38
2023-01-17T04:20:51.611Z,98436.50
2023-01-17T04:23:17.966Z,98434.22
2023-01-17T04:25:44.448Z,98436.00
2023-01-17T04:28:12.564Z,98435.19
2023-01-17T04:30:39.233Z,98429.78
2023-01-17T04:33:05.555Z,98425.22
2023-01-17T04:35:32.292Z,98417.03
2023-01-17T04:37:58.703Z,98415.38
2023-01-17T04:40:24.990Z,98412.25
2023-01-17T04:42:51.289Z,98417.19
2023-01-17T04:45:18.964Z,98414.09
2023-01-17T04:47:45.248Z,98421.44
2023-01-17T04:50:11.725Z,98419.63
2023-01-17T04:52:38.243Z,98424.03
2023-01-17T04:55:05.000Z,98428.75
2023-01-17T04:57:31.351Z,98431.03
2023-01-17T04:59:57.667Z,98432.69
2023-01-17T05:02:25.320Z,98432.00
2023-01-17T05:04:51.664Z,98438.25
2023-01-17T05:07:17.982Z,98435.00
2023-01-17T05:09:44.305Z,98436.63
2023-01-17T05:12:10.630Z,98435.81
2023-01-17T05:14:36.960Z,98440.56
2023-01-17T05:17:03.308Z,98434.97
2023-01-17T05:19:30.968Z,98434.81
2023-01-17T05:21:57.291Z,98433.44
2023-01-17T05:24:23.567Z,98430.97
2023-01-17T05:26:50.366Z,98433.41
2023-01-17T05:29:16.694Z,98429.97
2023-01-17T05:31:43.006Z,98436.13
2023-01-17T05:34:09.393Z,98453.75
2023-01-17T05:36:37.070Z,98456.00
2023-01-17T05:39:03.503Z,98445.84
2023-01-17T05:41:29.815Z,98465.78
2023-01-17T05:43:56.087Z,98464.47
2023-01-17T05:46:22.470Z,98461.38
2023-01-17T05:48:48.890Z,98465.56
2023-01-17T05:51:15.215Z,98465.75
2023-01-17T05:53:42.936Z,98463.91
2023-01-17T05:56:09.264Z,98465.19
2023-01-17T05:58:35.605Z,98463.38
2023-01-17T06:01:01.982Z,98465.03
2023-01-17T06:03:28.342Z,98459.44
2023-01-17T06:05:54.660Z,98465.19
2023-01-17T06:08:20.973Z,98465.84
2023-01-17T06:10:48.623Z,98462.25
2023-01-17T06:13:15.294Z,98466.16
2023-01-17T06:15:42.005Z,98459.44
2023-01-17T06:18:08.991Z,98468.25
2023-01-17T06:20:35.693Z,98478.03
2023-01-17T06:23:02.406Z,98475.06
2023-01-17T06:25:28.703Z,98486.47
2023-01-17T06:27:56.366Z,98482.06
2023-01-17T06:30:22.855Z,98485.00
2023-01-17T06:32:52.053Z,98490.53
2023-01-17T06:35:18.348Z,98484.63
2023-01-17T06:37:44.638Z,98487.53
2023-01-17T06:40:11.697Z,98490.00
2023-01-17T06:42:37.985Z,98482.00
2023-01-17T06:45:06.475Z,98481.81
2023-01-17T06:47:32.788Z,98481.97
2023-01-17T06:49:59.065Z,98490.91
2023-01-17T06:52:25.386Z,98488.59
2023-01-17T06:54:51.710Z,98484.47
2023-01-17T06:57:18.052Z,98480.53
2023-01-17T06:59:44.361Z,98481.50
2023-01-17T07:02:12.028Z,98492.09
2023-01-17T07:04:38.355Z,98491.28
2023-01-17T07:07:04.704Z,98486.69
2023-01-17T07:09:31.033Z,98494.88
2023-01-17T07:11:57.955Z,98488.53
2023-01-17T07:14:24.310Z,98496.59
2023-01-17T07:16:50.805Z,98493.84
2023-01-17T07:19:18.518Z,98500.31
2023-01-17T07:21:44.832Z,98499.34
2023-01-17T07:24:11.281Z,98501.28
2023-01-17T07:26:37.627Z,98510.41
2023-01-17T07:29:03.961Z,98506.13
2023-01-17T07:31:30.323Z,98500.25
2023-01-17T07:33:56.658Z,98507.41
2023-01-17T07:36:24.316Z,98508.75
2023-01-17T07:38:50.625Z,98499.69
2023-01-17T07:41:16.913Z,98496.59
2023-01-17T07:43:43.217Z,98498.22
2023-01-17T07:46:09.516Z,98496.59
2023-01-17T07:48:35.856Z,98493.97
2023-01-17T07:51:02.222Z,98493.97
2023-01-17T07:53:30.413Z,98486.16
2023-01-17T07:55:59.981Z,98496.19
2023-01-17T07:58:26.289Z,98496.19
2023-01-17T08:00:52.688Z,98495.50
2023-01-17T08:03:19.037Z,98496.88
2023-01-17T08:05:52.739Z,98493.59
2023-01-17T08:08:19.037Z,98498.66
2023-01-17T08:10:46.932Z,98495.75
2023-01-17T08:13:13.235Z,98493.00
2023-01-17T08:15:39.547Z,98502.47
2023-01-17T08:18:05.862Z,98499.19
2023-01-17T08:20:32.186Z,98489.41
2023-01-17T08:22:58.497Z,98501.06
2023-01-17T08:25:25.053Z,98505.16
2023-01-17T08:27:56.084Z,98501.28
2023-01-17T08:30:22.431Z,98506.34
2023-01-17T08:32:48.758Z,98502.63
2023-01-17T08:35:15.128Z,98512.47
2023-01-17T08:37:41.464Z,98513.97
2023-01-17T08:40:08.532Z,98517.94
2023-01-17T08:42:35.082Z,98520.41
2023-01-17T08:45:03.059Z,98525.31
2023-01-17T08:47:29.405Z,98530.91
2023-01-17T08:49:55.733Z,98524.34
2023-01-17T08:52:22.045Z,98537.78
2023-01-17T08:54:48.362Z,98530.63
2023-01-17T08:57:14.657Z,98532.78
2023-01-17T08:59:41.152Z,98532.03
2023-01-17T09:02:13.793Z,98533.22
2023-01-17T09:04:40.156Z,98528.88
2023-01-17T09:07:06.637Z,98529.25
2023-01-17T09:09:32.962Z,98521.63
2023-01-17T09:11:59.285Z,98523.97
2023-01-17T09:14:25.608Z,98523.00
2023-01-17T09:16:52.049Z,98526.63
2023-01-17T09:19:19.749Z,98528.47
2023-01-17T09:21:46.067Z,98538.97
2023-01-17T09:24:12.399Z,98529.81
2023-01-17T09:26:38.771Z,98531.47
2023-01-17T09:29:05.090Z,98542.59
2023-01-17T09:31:31.432Z,98534.47
2023-01-17T09:33:58.161Z,98535.47
2023-01-17T09:36:26.489Z,98536.00
2023-01-17T09:38:55.551Z,98544.00
2023-01-17T09:41:23.819Z,98544.00
2023-01-17T09:43:52.843Z,98556.78
2023-01-17T09:46:21.334Z,98553.31
2023-01-17T09:48:49.532Z,98562.66
2023-01-17T09:51:19.779Z,98566.59
2023-01-17T09:53:47.514Z,98574.16
2023-01-17T09:56:16.245Z,98567.66
2023-01-17T09:58:46.190Z,98564.25
2023-01-17T10:01:17.867Z,98567.19
2023-01-17T10:03:51.945Z,98561.19
2023-01-17T10:06:33.354Z,98563.69
2023-01-17T10:09:10.060Z,98561.94
2023-01-17T10:11:42.156Z,98560.00
2023-01-17T10:14:20.142Z,98563.66
2023-01-17T10:16:53.286Z,98567.78
2023-01-17T10:19:26.393Z,98575.50
2023-01-17T10:21:58.689Z,98572.56
2023-01-17T10:24:37.041Z,98572.94
2023-01-17T10:27:09.869Z,98569.19
2023-01-17T10:29:36.644Z,98569.69
2023-01-17T10:32:03.172Z,98567.72
2023-01-17T10:34:32.898Z,98567.41
2023-01-17T10:37:01.779Z,98573.28
2023-01-17T10:39:29.240Z,98570.16
2023-01-17T10:41:59.121Z,98576.88
2023-01-17T10:44:29.970Z,98575.56
2023-01-17T10:46:58.464Z,98572.63
2023-01-17T10:49:26.160Z,98566.84
2023-01-17T10:51:57.653Z,98558.47
2023-01-17T10:54:35.772Z,98554.69
2023-01-17T10:57:03.750Z,98558.09
2023-01-17T10:59:31.284Z,98551.19
2023-01-17T11:01:58.013Z,98559.06
2023-01-17T11:04:30.392Z,98557.28
2023-01-17T11:07:09.886Z,98552.84
2023-01-17T11:09:37.724Z,98557.75
2023-01-17T11:12:05.524Z,98562.53
2023-01-17T11:14:32.197Z,98563.50
2023-01-17T11:16:59.348Z,98556.75
2023-01-17T11:19:27.252Z,98549.19
2023-01-17T11:21:54.692Z,98549.84
2023-01-17T11:24:25.800Z,98546.25
2023-01-17T11:26:52.363Z,98559.38
2023-01-17T11:29:30.399Z,98548.88
2023-01-17T11:31:56.716Z,98548.53
2023-01-17T11:34:24.630Z,98551.16
2023-01-17T11:37:05.865Z,98547.06
2023-01-17T11:39:32.195Z,98547.09
2023-01-17T11:41:58.580Z,98553.00
2023-01-17T11:44:25.765Z,98546.56
2023-01-17T11:47:16.094Z,98551.81
2023-01-17T11:49:44.416Z,98550.38
2023-01-17T11:52:11.338Z,98543.16
2023-01-17T11:54:39.252Z,98537.91
2023-01-17T11:57:07.008Z,98544.91
2023-01-17T11:59:34.449Z,98534.25
2023-01-17T12:02:15.662Z,98525.06
2023-01-17T12:04:45.622Z,98527.34
2023-01-17T12:07:23.161Z,98523.88
2023-01-17T12:09:58.914Z,98521.06
2023-01-17T12:12:31.745Z,98528.31
2023-01-17T12:15:02.594Z,98515.34
2023-01-17T12:17:34.921Z,98527.16
2023-01-17T12:20:15.277Z,98523.19
2023-01-17T12:22:50.893Z,98524.03
2023-01-17T12:25:24.714Z,98528.09
2023-01-17T12:27:56.529Z,98524.81
2023-01-17T12:30:30.465Z,98526.44
2023-01-17T12:33:06.679Z,98517.91
2023-01-17T12:35:38.027Z,98519.38
2023-01-17T12:38:07.970Z,98519.81
2023-01-17T12:40:37.118Z,98514.41
2023-01-17T12:43:08.282Z,98516.16
2023-01-17T12:45:38.395Z,98506.66
2023-01-17T12:48:06.835Z,98514.50
2023-01-17T12:50:38.814Z,98511.16
2023-01-17T12:53:14.377Z,98510.31
2023-01-17T12:55:46.989Z,98510.41
2023-01-17T12:58:15.521Z,98509.69
2023-01-17T13:00:43.087Z,98512.47
2023-01-17T13:03:16.439Z,98506.72
2023-01-17T13:05:45.338Z,98502.94
2023-01-17T13:08:15.537Z,98514.63
2023-01-17T13:10:45.881Z,98512.97
2023-01-17T13:13:15.818Z,98518.88
2023-01-17T13:15:42.791Z,98510.19
2023-01-17T13:18:12.875Z,98505.75
2023-01-17T13:20:49.301Z,98505.09
2023-01-17T13:23:22.992Z,98503.44
2023-01-17T13:25:50.129Z,98509.53
2023-01-17T13:28:20.969Z,98504.09
2023-01-17T13:31:05.099Z,98507.63
2023-01-17T13:33:49.771Z,98510.25
2023-01-17T13:36:28.475Z,98514.09
2023-01-17T13:39:00.492Z,98511.97
2023-01-17T13:41:38.462Z,98516.94
2023-01-17T13:44:05.051Z,98508.91
2023-01-17T13:46:31.493Z,98508.06
2023-01-17T13:49:12.695Z,98506.88
2023-01-17T13:51:53.872Z,98509.81
2023-01-17T13:54:30.980Z,98504.81
2023-01-17T13:57:12.176Z,98505.31
2023-01-17T13:59:38.554Z,98510.56
2023-01-17T14:02:25.797Z,98520.09
2023-01-17T14:05:13.070Z,98520.91
2023-01-17T14:07:42.927Z,98522.22
2023-01-17T14:10:22.740Z,98515.91
2023-01-17T14:12:49.408Z,98524.81
2023-01-17T14:15:19.660Z,98516.63
2023-01-17T14:17:49.378Z,98525.03
2023-01-17T14:20:34.424Z,98527.19
2023-01-17T14:23:02.267Z,98525.69
2023-01-17T14:25:30.997Z,98528.44
2023-01-17T14:28:00.247Z,98532.41
2023-01-17T14:30:27.977Z,98535.22
2023-01-17T14:33:19.227Z,98545.91
2023-01-17T14:35:49.967Z,98540.97
2023-01-17T14:38:19.110Z,98544.97
2023-01-17T14:40:51.557Z,98542.00
2023-01-17T14:43:19.568Z,98547.28
2023-01-17T14:45:46.189Z,98550.41
2023-01-17T14:48:15.683Z,98544.84
2023-01-17T14:50:43.023Z,98548.97
2023-01-17T14:53:17.137Z,98545.22
2023-01-17T14:55:52.226Z,98548.50
2023-01-17T14:58:19.322Z,98549.81
2023-01-17T15:00:46.311Z,98550.97
2023-01-17T15:03:13.124Z,98550.31
2023-01-17T15:05:41.150Z,98555.72
2023-01-17T15:08:10.996Z,98551.63
2023-01-17T15:10:43.566Z,98554.06
2023-01-17T15:13:11.358Z,98547.34
2023-01-17T15:15:38.417Z,98556.19
2023-01-17T15:18:18.686Z,98558.53
2023-01-17T15:20:48.872Z,98558.34
2023-01-17T15:23:16.953Z,98562.78
2023-01-17T15:25:43.445Z,98556.41
2023-01-17T15:28:12.492Z,98572.31
2023-01-17T15:30:56.871Z,98561.63
2023-01-17T15:33:23.313Z,98570.34
2023-01-17T15:35:57.641Z,98576.72
2023-01-17T15:38:25.732Z,98572.31
2023-01-17T15:40:52.013Z,98570.50
2023-01-17T15:43:20.964Z,98573.09
2023-01-17T15:45:53.883Z,98566.72
2023-01-17T15:48:33.240Z,98579.16
2023-01-17T15:50:59.631Z,98574.38
2023-01-17T15:53:30.124Z,98572.56
2023-01-17T15:55:56.785Z,98582.84
2023-01-17T15:58:25.341Z,98572.88
2023-01-17T16:00:51.677Z,98584.47
2023-01-17T16:03:21.689Z,98582.31
2023-01-17T16:05:48.562Z,98591.66
2023-01-17T16:08:28.501Z,98587.84
2023-01-17T16:10:55.487Z,98589.47
2023-01-17T16:13:21.831Z,98590.91
2023-01-17T16:15:49.698Z,98585.19
2023-01-17T16:18:17.693Z,98588.25
2023-01-17T16:20:46.608Z,98581.03
2023-01-17T16:23:12.966Z,98584.44
2023-01-17T16:25:39.240Z,98586.84
2023-01-17T16:28:05.851Z,98590.25
2023-01-17T16:30:32.714Z,98588.09
2023-01-17T16:33:00.407Z,98602.31
2023-01-17T16:35:28.221Z,98601.97
2023-01-17T16:37:55.398Z,98599.31
2023-01-17T16:40:23.614Z,98600.88
2023-01-17T16:42:49.934Z,98602.47
2023-01-17T16:45:16.736Z,98602.09
2023-01-17T16:47:43.873Z,98600.63
2023-01-17T16:50:12.770Z,98606.97
2023-01-17T16:52:39.176Z,98605.28
2023-01-17T16:55:06.424Z,98608.94
2023-01-17T16:57:32.859Z,98611.94
2023-01-17T16:59:59.195Z,98619.16
2023-01-17T17:02:25.544Z,98625.50
2023-01-17T17:04:51.867Z,98612.22
2023-01-17T17:07:19.544Z,98607.28
2023-01-17T17:09:45.855Z,98609.66
2023-01-17T17:12:12.187Z,98613.09
2023-01-17T17:14:38.511Z,98607.72
2023-01-17T17:17:04.829Z,98611.84
2023-01-17T17:19:31.178Z,98617.34
2023-01-17T17:21:57.888Z,98617.81
2023-01-17T17:24:25.647Z,98620.09
2023-01-17T17:26:51.927Z,98626.19
2023-01-17T17:29:18.416Z,98625.38
2023-01-17T17:31:44.707Z,98622.06
2023-01-17T17:34:11.894Z,98637.19
2023-01-17T17:36:38.310Z,98632.56
2023-01-17T17:39:06.141Z,98645.78
2023-01-17T17:41:34.375Z,98645.22
2023-01-17T17:44:01.360Z,98644.56
2023-01-17T17:46:28.137Z,98647.88
2023-01-17T17:48:54.883Z,98645.72
2023-01-17T17:51:22.099Z,98644.91
2023-01-17T17:53:48.440Z,98651.91
2023-01-17T17:56:14.914Z,98660.00
2023-01-17T17:58:43.788Z,98656.34
2023-01-17T18:01:11.791Z,98668.28
2023-01-17T18:03:38.141Z,98669.38
2023-01-17T18:06:05.326Z,98670.47
2023-01-17T18:08:31.804Z,98670.06
2023-01-17T18:10:58.794Z,98674.50
2023-01-17T18:13:28.035Z,98683.13
2023-01-17T18:16:02.746Z,98686.16
2023-01-17T18:18:29.116Z,98686.72
2023-01-17T18:20:55.484Z,98690.59
2023-01-17T18:23:21.820Z,98695.25
2023-01-17T18:25:48.132Z,98699.78
2023-01-17T18:28:14.474Z,98696.47
2023-01-17T18:30:40.775Z,98703.34
2023-01-17T18:33:08.499Z,98705.31
2023-01-17T18:35:34.817Z,98705.00
2023-01-17T18:38:01.170Z,98709.41
2023-01-17T18:40:27.462Z,98713.69
2023-01-17T18:42:54.131Z,98711.22
2023-01-17T18:45:20.698Z,98716.69
2023-01-17T18:47:47.045Z,98710.66
2023-01-17T18:50:15.077Z,98716.69
2023-01-17T18:52:41.420Z,98718.47
2023-01-17T18:55:08.030Z,98727.53
2023-01-17T18:57:34.342Z,98729.06
2023-01-17T19:00:00.637Z,98739.50
2023-01-17T19:02:26.946Z,98739.50
2023-01-17T19:04:53.434Z,98732.75
2023-01-17T19:07:21.139Z,98732.47
2023-01-17T19:09:47.491Z,98735.50
2023-01-17T19:12:16.724Z,98740.72
2023-01-17T19:14:44.749Z,98741.41
2023-01-17T19:17:11.135Z,98740.59
2023-01-17T19:19:37.471Z,98739.06
2023-01-17T19:22:03.777Z,98745.94
2023-01-17T19:24:31.458Z,98752.78
2023-01-17T19:26:57.811Z,98749.63
2023-01-17T19:29:24.156Z,98748.53
2023-01-17T19:31:50.485Z,98759.34
2023-01-17T19:34:16.941Z,98763.03
2023-01-17T19:36:44.839Z,98766.06
2023-01-17T19:39:11.220Z,98760.97
2023-01-17T19:41:41.688Z,98762.88
2023-01-17T19:44:09.128Z,98765.25
2023-01-17T19:46:35.946Z,98762.38
2023-01-17T19:49:02.881Z,98771.16
2023-01-17T19:51:29.214Z,98763.72
2023-01-17T19:53:55.992Z,98762.50
2023-01-17T19:56:23.056Z,98768.22
2023-01-17T19:58:50.966Z,98764.28
2023-01-17T20:01:18.603Z,98763.72
2023-01-17T20:03:45.759Z,98763.72
2023-01-17T20:06:12.951Z,98772.09
2023-01-17T20:08:39.620Z,98774.56
2023-01-17T20:11:07.567Z,98775.41
2023-01-17T20:13:34.281Z,98783.34
2023-01-17T20:16:06.146Z,98787.75
2023-01-17T20:18:33.248Z,98789.91
2023-01-17T20:21:03.072Z,98791.28
2023-01-17T20:23:29.469Z,98794.00
2023-01-17T20:25:55.768Z,98793.31
2023-01-17T20:28:22.071Z,98791.78
2023-01-17T20:30:49.655Z,98799.91
2023-01-17T20:33:17.362Z,98793.28
2023-01-17T20:35:43.639Z,98798.63
2023-01-17T20:38:09.934Z,98791.75
2023-01-17T20:40:36.209Z,98793.41
2023-01-17T20:43:02.531Z,98792.59
2023-01-17T20:45:28.888Z,98799.84
2023-01-17T20:47:55.597Z,98803.56
2023-01-17T20:50:23.405Z,98800.78
2023-01-17T20:52:49.707Z,98805.03
2023-01-17T20:55:16.303Z,98808.34
2023-01-17T20:57:42.626Z,98807.41
2023-01-17T21:00:10.117Z,98808.34
2023-01-17T21:02:36.519Z,98811.91
2023-01-17T21:05:02.939Z,98807.66
2023-01-17T21:07:30.656Z,98805.75
2023-01-17T21:09:56.973Z,98807.41
2023-01-17T21:12:23.346Z,98816.69
2023-01-17T21:14:49.701Z,98813.78
2023-01-17T21:17:16.085Z,98813.91
2023-01-17T21:19:45.520Z,98814.72
2023-01-17T21:22:13.241Z,98812.00
2023-01-17T21:24:40.930Z,98808.44
2023-01-17T21:27:07.230Z,98813.22
2023-01-17T21:29:33.506Z,98814.69
2023-01-17T21:31:59.839Z,98817.00
2023-01-17T21:34:26.234Z,98818.78
2023-01-17T21:36:52.560Z,98820.56
2023-01-17T21:39:19.138Z,98822.09
2023-01-17T21:41:47.633Z,98820.59
2023-01-17T21:44:15.128Z,98818.69
2023-01-17T21:46:41.438Z,98819.41
2023-01-17T21:49:08.419Z,98817.50
2023-01-17T21:51:34.794Z,98813.91
2023-01-17T21:54:01.093Z,98815.84
2023-01-17T21:56:27.384Z,98818.56
2023-01-17T21:58:56.015Z,98822.94
2023-01-17T22:01:23.227Z,98823.91
2023-01-17T22:03:51.153Z,98818.56
2023-01-17T22:06:17.917Z,98811.59
2023-01-17T22:08:44.350Z,98820.22
2023-01-17T22:11:11.669Z,98826.13
2023-01-17T22:13:38.541Z,98826.13
2023-01-17T22:16:07.510Z,98837.34
2023-01-17T22:18:34.478Z,98837.50
2023-01-17T22:21:03.577Z,98840.22
2023-01-17T22:23:29.952Z,98835.84
2023-01-17T22:26:00.846Z,98840.22
2023-01-17T22:28:28.823Z,98838.81
2023-01-17T22:30:55.210Z,98845.25
2023-01-17T22:33:22.880Z,98843.75
2023-01-17T22:35:56.380Z,98844.81
2023-01-17T22:38:22.800Z,98841.63
2023-01-17T22:40:49.368Z,98843.53
2023-01-17T22:43:15.714Z,98840.38
2023-01-17T22:45:42.068Z,98847.75
2023-01-17T22:48:08.412Z,98845.41
2023-01-17T22:50:36.069Z,98842.66
2023-01-17T22:53:02.379Z,98846.66
2023-01-17T22:55:28.705Z,98845.59
2023-01-17T22:57:55.013Z,98854.34
2023-01-17T23:00:21.535Z,98844.75
2023-01-17T23:02:47.874Z,98844.50
2023-01-17T23:05:14.338Z,98844.63
2023-01-17T23:07:41.993Z,98851.75
2023-01-17T23:10:09.055Z,98856.25
2023-01-17T23:12:35.363Z,98863.22
2023-01-17T23:15:01.705Z,98852.94
2023-01-17T23:17:28.049Z,98852.94
2023-01-17T23:19:54.355Z,98848.81
2023-01-17T23:22:21.809Z,98853.47
2023-01-17T23:24:50.411Z,98857.25
2023-01-17T23:27:18.349Z,98852.69
2023-01-17T23:29:44.696Z,98851.88
2023-01-17T23:32:10.976Z,98857.19
2023-01-17T23:34:37.275Z,98856.84
2023-01-17T23:37:03.574Z,98858.22
2023-01-17T23:39:29.892Z,98857.13
2023-01-17T23:41:57.565Z,98863.06
2023-01-17T23:44:23.925Z,98858.66
2023-01-17T23:46:50.266Z,98865.53
2023-01-17T23:49:16.626Z,98856.06
2023-01-17T23:51:42.912Z,98847.56
2023-01-17T23:54:09.292Z,98852.88
2023-01-17T23:56:35.632Z,98851.34
2023-01-17T23:59:03.386Z,98856.50
